Aviation Digital Data Service (ADDS)

Output produced by METARs form (0243 UTC 24 July 2017)
found at http://www.aviationweather.gov/adds/metars/
 
TISX 232339Z 2400/2424 08008KT P6SM FEW030 
     FM241400 10015KT P6SM FEW025 SCT035 
     FM242200 06006KT P6SM VCSH SCT030
       
TIST 232339Z 2400/2424 07010KT P6SM FEW025 
     FM241400 12015KT P6SM FEW025 SCT035 
     FM242200 07010KT P6SM VCSH SCT025